FNG8 EFTU-EFTU
Flight info
| Callsign | FNG8 |
|---|---|
| Flight time | 1h 14m |
| Altitude | 4000 |
| Route | JUTKI PIPARBY DEGERBY KATTBY GETA LOKALAHTI NOUSU |
| Aircraft | D228/L-SDFGHILORVY/S |
Departure
| Time | 2026-04-22 06:15 |
|---|---|
| Airport | Turku Airport (EFTU) |
Arrival
| Time | 2026-04-22 07:29 |
|---|---|
| Airport | Turku Airport (EFTU) |
| Time | Latitude | Longitude | Altitude | Speed | Heading |
|---|---|---|---|---|---|
| 2026-04-22 06:07 | 60.51329 | 22.28775 | 151 ft | 0 kts | 176° |
| 2026-04-22 06:13 | 60.51328 | 22.28775 | 151 ft | 1 kts | 176° |
| 2026-04-22 06:13 | 60.51303 | 22.28728 | 151 ft | 10 kts | 271° |
| 2026-04-22 06:14 | 60.51347 | 22.28562 | 146 ft | 14 kts | 341° |
| 2026-04-22 06:14 | 60.51422 | 22.28541 | 144 ft | 11 kts | 351° |
| 2026-04-22 06:14 | 60.51499 | 22.28475 | 148 ft | 13 kts | 301° |
| 2026-04-22 06:14 | 60.51492 | 22.28086 | 152 ft | 58 kts | 264° |
| 2026-04-22 06:15 | 60.51444 | 22.26898 | 293 ft | 100 kts | 272° |
| 2026-04-22 06:15 | 60.51410 | 22.25373 | 668 ft | 113 kts | 272° |
| 2026-04-22 06:15 | 60.51332 | 22.23748 | 1156 ft | 119 kts | 270° |
| 2026-04-22 06:15 | 60.50788 | 22.22118 | 1187 ft | 167 kts | 220° |
| 2026-04-22 06:16 | 60.49669 | 22.21058 | 1212 ft | 183 kts | 210° |
| 2026-04-22 06:16 | 60.48483 | 22.20048 | 1204 ft | 187 kts | 208° |
| 2026-04-22 06:16 | 60.47260 | 22.19114 | 1202 ft | 188 kts | 207° |
| 2026-04-22 06:16 | 60.46043 | 22.18176 | 1226 ft | 187 kts | 207° |
| 2026-04-22 06:17 | 60.44823 | 22.17231 | 1225 ft | 186 kts | 207° |
| 2026-04-22 06:17 | 60.43606 | 22.16298 | 1235 ft | 188 kts | 207° |
| 2026-04-22 06:17 | 60.42401 | 22.15372 | 1227 ft | 187 kts | 207° |
| 2026-04-22 06:17 | 60.41182 | 22.14444 | 1226 ft | 187 kts | 206° |
| 2026-04-22 06:18 | 60.39964 | 22.13504 | 1223 ft | 187 kts | 207° |
| 2026-04-22 06:18 | 60.38746 | 22.12558 | 1224 ft | 187 kts | 207° |
| 2026-04-22 06:18 | 60.37522 | 22.11606 | 1218 ft | 188 kts | 207° |
| 2026-04-22 06:18 | 60.36303 | 22.10665 | 1216 ft | 187 kts | 207° |
| 2026-04-22 06:19 | 60.35068 | 22.09770 | 1202 ft | 190 kts | 199° |
| 2026-04-22 06:19 | 60.33756 | 22.09458 | 1217 ft | 192 kts | 190° |
| 2026-04-22 06:19 | 60.32419 | 22.09215 | 1216 ft | 193 kts | 190° |
| 2026-04-22 06:19 | 60.31085 | 22.08963 | 1222 ft | 192 kts | 190° |
| 2026-04-22 06:20 | 60.29752 | 22.08705 | 1218 ft | 192 kts | 190° |
| 2026-04-22 06:20 | 60.28416 | 22.08581 | 1205 ft | 194 kts | 176° |
| 2026-04-22 06:20 | 60.27092 | 22.09186 | 1218 ft | 196 kts | 169° |
| 2026-04-22 06:20 | 60.25770 | 22.09855 | 1218 ft | 196 kts | 169° |
| 2026-04-22 06:21 | 60.24460 | 22.10520 | 1215 ft | 196 kts | 169° |
| 2026-04-22 06:21 | 60.23135 | 22.11195 | 1214 ft | 196 kts | 169° |
| 2026-04-22 06:21 | 60.21810 | 22.11872 | 1217 ft | 196 kts | 169° |
| 2026-04-22 06:21 | 60.20486 | 22.12548 | 1217 ft | 196 kts | 169° |
| 2026-04-22 06:22 | 60.19163 | 22.13221 | 1227 ft | 197 kts | 169° |
| 2026-04-22 06:22 | 60.17832 | 22.13889 | 1215 ft | 196 kts | 168° |
| 2026-04-22 06:22 | 60.16510 | 22.14530 | 1215 ft | 195 kts | 169° |
| 2026-04-22 06:22 | 60.15175 | 22.15063 | 1214 ft | 195 kts | 183° |
| 2026-04-22 06:23 | 60.13962 | 22.14185 | 1230 ft | 183 kts | 225° |
| 2026-04-22 06:23 | 60.13135 | 22.12355 | 1235 ft | 176 kts | 244° |
| 2026-04-22 06:23 | 60.12495 | 22.10262 | 1231 ft | 176 kts | 247° |
| 2026-04-22 06:23 | 60.11869 | 22.08161 | 1229 ft | 175 kts | 247° |
| 2026-04-22 06:24 | 60.10963 | 22.03723 | 1241 ft | 172 kts | 260° |
| 2026-04-22 06:24 | 60.10601 | 22.01434 | 1238 ft | 171 kts | 260° |
| 2026-04-22 06:24 | 60.10239 | 21.99171 | 1237 ft | 170 kts | 259° |
| 2026-04-22 06:25 | 60.09880 | 21.96918 | 1237 ft | 169 kts | 259° |
| 2026-04-22 06:25 | 60.09526 | 21.94659 | 1231 ft | 170 kts | 260° |
| 2026-04-22 06:25 | 60.09162 | 21.92397 | 1231 ft | 170 kts | 260° |
| 2026-04-22 06:25 | 60.08788 | 21.90137 | 1230 ft | 171 kts | 259° |
| 2026-04-22 06:26 | 60.08426 | 21.87904 | 1230 ft | 170 kts | 261° |
| 2026-04-22 06:26 | 60.08347 | 21.85610 | 1236 ft | 164 kts | 279° |
| 2026-04-22 06:26 | 60.08402 | 21.83331 | 1238 ft | 164 kts | 280° |
| 2026-04-22 06:26 | 60.08459 | 21.81040 | 1239 ft | 165 kts | 280° |
| 2026-04-22 06:27 | 60.08510 | 21.78742 | 1236 ft | 165 kts | 279° |
| 2026-04-22 06:27 | 60.08565 | 21.76452 | 1234 ft | 164 kts | 280° |
| 2026-04-22 06:27 | 60.08609 | 21.74160 | 1240 ft | 165 kts | 279° |
| 2026-04-22 06:27 | 60.08659 | 21.71861 | 1239 ft | 165 kts | 280° |
| 2026-04-22 06:28 | 60.08694 | 21.69580 | 1237 ft | 166 kts | 279° |
| 2026-04-22 06:28 | 60.08726 | 21.67259 | 1236 ft | 168 kts | 279° |
| 2026-04-22 06:28 | 60.08761 | 21.64914 | 1237 ft | 168 kts | 279° |
| 2026-04-22 06:28 | 60.08808 | 21.62581 | 1238 ft | 167 kts | 279° |
| 2026-04-22 06:29 | 60.08778 | 21.60256 | 1212 ft | 172 kts | 263° |
| 2026-04-22 06:29 | 60.08137 | 21.58155 | 1268 ft | 179 kts | 239° |
| 2026-04-22 06:29 | 60.07349 | 21.56219 | 1369 ft | 179 kts | 238° |
| 2026-04-22 06:29 | 60.06564 | 21.54318 | 1481 ft | 179 kts | 239° |
| 2026-04-22 06:30 | 60.05764 | 21.52400 | 1577 ft | 179 kts | 238° |
| 2026-04-22 06:30 | 60.04969 | 21.50494 | 1683 ft | 178 kts | 239° |
| 2026-04-22 06:30 | 60.04171 | 21.48574 | 1794 ft | 180 kts | 238° |
| 2026-04-22 06:30 | 60.03371 | 21.46642 | 1892 ft | 180 kts | 238° |
| 2026-04-22 06:31 | 60.02568 | 21.44711 | 1994 ft | 180 kts | 238° |
| 2026-04-22 06:31 | 60.01764 | 21.42780 | 2041 ft | 182 kts | 238° |
| 2026-04-22 06:31 | 60.00954 | 21.40815 | 2048 ft | 185 kts | 238° |
| 2026-04-22 06:31 | 60.00139 | 21.38847 | 2053 ft | 187 kts | 238° |
| 2026-04-22 06:32 | 59.99315 | 21.36840 | 2060 ft | 187 kts | 238° |
| 2026-04-22 06:32 | 59.98486 | 21.34826 | 2060 ft | 187 kts | 239° |
| 2026-04-22 06:32 | 59.97758 | 21.32704 | 2062 ft | 184 kts | 246° |
| 2026-04-22 06:32 | 59.97067 | 21.30531 | 2056 ft | 187 kts | 245° |
| 2026-04-22 06:33 | 59.96365 | 21.28350 | 2060 ft | 186 kts | 245° |
| 2026-04-22 06:33 | 59.95659 | 21.26171 | 2060 ft | 187 kts | 245° |
| 2026-04-22 06:33 | 59.94955 | 21.23994 | 2059 ft | 186 kts | 245° |
| 2026-04-22 06:33 | 59.94262 | 21.21846 | 2057 ft | 186 kts | 245° |
| 2026-04-22 06:34 | 59.93560 | 21.19670 | 2050 ft | 187 kts | 245° |
| 2026-04-22 06:34 | 59.92861 | 21.17497 | 2049 ft | 186 kts | 245° |
| 2026-04-22 06:34 | 59.92162 | 21.15322 | 2051 ft | 186 kts | 245° |
| 2026-04-22 06:34 | 59.91464 | 21.13147 | 2052 ft | 186 kts | 245° |
| 2026-04-22 06:35 | 59.90766 | 21.10975 | 2053 ft | 186 kts | 245° |
| 2026-04-22 06:35 | 59.90072 | 21.08799 | 2051 ft | 186 kts | 245° |
| 2026-04-22 06:35 | 59.89381 | 21.06626 | 2052 ft | 185 kts | 245° |
| 2026-04-22 06:35 | 59.88687 | 21.04458 | 2052 ft | 185 kts | 245° |
| 2026-04-22 06:36 | 59.87988 | 21.02299 | 2058 ft | 186 kts | 245° |
| 2026-04-22 06:36 | 59.87285 | 21.00135 | 2063 ft | 186 kts | 245° |
| 2026-04-22 06:36 | 59.86584 | 20.97973 | 2063 ft | 186 kts | 245° |
| 2026-04-22 06:36 | 59.85890 | 20.95812 | 2065 ft | 185 kts | 245° |
| 2026-04-22 06:37 | 59.85210 | 20.93643 | 2070 ft | 183 kts | 251° |
| 2026-04-22 06:37 | 59.85069 | 20.91270 | 2085 ft | 170 kts | 284° |
| 2026-04-22 06:37 | 59.85239 | 20.88974 | 2077 ft | 170 kts | 287° |
| 2026-04-22 06:37 | 59.85457 | 20.86671 | 2077 ft | 169 kts | 288° |
| 2026-04-22 06:38 | 59.85675 | 20.84370 | 2055 ft | 169 kts | 288° |
| 2026-04-22 06:38 | 59.85890 | 20.82066 | 2066 ft | 169 kts | 288° |
| 2026-04-22 06:38 | 59.86108 | 20.79760 | 2064 ft | 169 kts | 288° |
| 2026-04-22 06:38 | 59.86326 | 20.77451 | 2063 ft | 170 kts | 288° |
| 2026-04-22 06:39 | 59.86540 | 20.75153 | 2064 ft | 170 kts | 288° |
| 2026-04-22 06:39 | 59.86762 | 20.72848 | 2063 ft | 169 kts | 289° |
| 2026-04-22 06:39 | 59.87009 | 20.70570 | 2071 ft | 168 kts | 290° |
| 2026-04-22 06:39 | 59.87261 | 20.68293 | 2071 ft | 168 kts | 290° |
| 2026-04-22 06:40 | 59.87428 | 20.66774 | 1999 ft | 171 kts | 290° |
| 2026-04-22 06:40 | 59.87683 | 20.64446 | 1894 ft | 172 kts | 291° |
| 2026-04-22 06:40 | 59.87931 | 20.62112 | 1788 ft | 172 kts | 290° |
| 2026-04-22 06:40 | 59.88217 | 20.59801 | 1683 ft | 171 kts | 293° |
| 2026-04-22 06:41 | 59.88546 | 20.57517 | 1579 ft | 171 kts | 293° |
| 2026-04-22 06:41 | 59.88989 | 20.54489 | 1434 ft | 172 kts | 293° |
| 2026-04-22 06:41 | 59.89221 | 20.52953 | 1364 ft | 171 kts | 293° |
| 2026-04-22 06:41 | 59.89569 | 20.50682 | 1283 ft | 170 kts | 293° |
| 2026-04-22 06:42 | 59.89910 | 20.48478 | 1277 ft | 168 kts | 293° |
| 2026-04-22 06:42 | 59.90251 | 20.46265 | 1279 ft | 167 kts | 293° |
| 2026-04-22 06:42 | 59.90581 | 20.44053 | 1276 ft | 166 kts | 293° |
| 2026-04-22 06:42 | 59.90907 | 20.41852 | 1275 ft | 165 kts | 293° |
| 2026-04-22 06:43 | 59.91239 | 20.39632 | 1208 ft | 167 kts | 293° |
| 2026-04-22 06:43 | 59.91571 | 20.37422 | 1210 ft | 166 kts | 293° |
| 2026-04-22 06:43 | 59.91939 | 20.35251 | 1209 ft | 165 kts | 296° |
| 2026-04-22 06:43 | 59.92332 | 20.33110 | 1207 ft | 165 kts | 296° |
| 2026-04-22 06:44 | 59.92726 | 20.30959 | 1202 ft | 165 kts | 296° |
| 2026-04-22 06:44 | 59.93126 | 20.28824 | 1199 ft | 164 kts | 298° |
| 2026-04-22 06:44 | 59.93598 | 20.26773 | 1197 ft | 162 kts | 301° |
| 2026-04-22 06:44 | 59.94082 | 20.24732 | 1195 ft | 163 kts | 301° |
| 2026-04-22 06:45 | 59.94567 | 20.22693 | 1197 ft | 163 kts | 301° |
| 2026-04-22 06:45 | 59.95048 | 20.20646 | 1191 ft | 162 kts | 301° |
| 2026-04-22 06:45 | 59.95509 | 20.18634 | 1193 ft | 161 kts | 301° |
| 2026-04-22 06:45 | 59.95974 | 20.16596 | 1192 ft | 161 kts | 301° |
| 2026-04-22 06:46 | 59.96443 | 20.14550 | 1191 ft | 162 kts | 301° |
| 2026-04-22 06:46 | 59.96913 | 20.12493 | 1191 ft | 163 kts | 301° |
| 2026-04-22 06:46 | 59.97383 | 20.10434 | 1190 ft | 163 kts | 301° |
| 2026-04-22 06:46 | 59.97859 | 20.08377 | 1191 ft | 163 kts | 301° |
| 2026-04-22 06:47 | 59.98341 | 20.06314 | 1191 ft | 164 kts | 301° |
| 2026-04-22 06:47 | 59.98822 | 20.04256 | 1188 ft | 163 kts | 301° |
| 2026-04-22 06:47 | 59.99300 | 20.02205 | 1190 ft | 163 kts | 301° |
| 2026-04-22 06:47 | 59.99777 | 20.00157 | 1186 ft | 162 kts | 301° |
| 2026-04-22 06:48 | 60.00245 | 19.98150 | 1185 ft | 161 kts | 301° |
| 2026-04-22 06:48 | 60.00729 | 19.96134 | 1190 ft | 161 kts | 304° |
| 2026-04-22 06:48 | 60.01262 | 19.94170 | 1187 ft | 160 kts | 305° |
| 2026-04-22 06:48 | 60.01801 | 19.92211 | 1184 ft | 161 kts | 305° |
| 2026-04-22 06:49 | 60.02344 | 19.90252 | 1186 ft | 161 kts | 305° |
| 2026-04-22 06:49 | 60.02886 | 19.88296 | 1186 ft | 161 kts | 305° |
| 2026-04-22 06:49 | 60.03450 | 19.86361 | 1190 ft | 160 kts | 310° |
| 2026-04-22 06:49 | 60.04090 | 19.84546 | 1189 ft | 160 kts | 311° |
| 2026-04-22 06:50 | 60.04738 | 19.82738 | 1187 ft | 159 kts | 311° |
| 2026-04-22 06:50 | 60.05385 | 19.80942 | 1184 ft | 159 kts | 311° |
| 2026-04-22 06:50 | 60.06033 | 19.79150 | 1184 ft | 159 kts | 311° |
| 2026-04-22 06:50 | 60.06682 | 19.77359 | 1184 ft | 159 kts | 311° |
| 2026-04-22 06:51 | 60.07330 | 19.75563 | 1185 ft | 159 kts | 311° |
| 2026-04-22 06:51 | 60.07969 | 19.73781 | 1184 ft | 160 kts | 311° |
| 2026-04-22 06:51 | 60.08615 | 19.71971 | 1185 ft | 160 kts | 311° |
| 2026-04-22 06:51 | 60.09267 | 19.70159 | 1186 ft | 160 kts | 311° |
| 2026-04-22 06:52 | 60.09921 | 19.68352 | 1214 ft | 160 kts | 311° |
| 2026-04-22 06:52 | 60.10576 | 19.66546 | 1213 ft | 160 kts | 311° |
| 2026-04-22 06:52 | 60.11226 | 19.64733 | 1207 ft | 160 kts | 311° |
| 2026-04-22 06:52 | 60.11873 | 19.62917 | 1206 ft | 160 kts | 311° |
| 2026-04-22 06:53 | 60.12517 | 19.61100 | 1207 ft | 160 kts | 311° |
| 2026-04-22 06:53 | 60.13162 | 19.59282 | 1206 ft | 160 kts | 311° |
| 2026-04-22 06:53 | 60.13811 | 19.57461 | 1204 ft | 161 kts | 311° |
| 2026-04-22 06:53 | 60.14464 | 19.55641 | 1206 ft | 161 kts | 311° |
| 2026-04-22 06:54 | 60.15122 | 19.53821 | 1210 ft | 161 kts | 311° |
| 2026-04-22 06:54 | 60.15776 | 19.52000 | 1214 ft | 161 kts | 311° |
| 2026-04-22 06:54 | 60.16634 | 19.50752 | 1230 ft | 157 kts | 348° |
| 2026-04-22 06:54 | 60.17710 | 19.50754 | 1349 ft | 154 kts | 1° |
| 2026-04-22 06:55 | 60.18778 | 19.50887 | 1465 ft | 153 kts | 2° |
| 2026-04-22 06:55 | 60.19835 | 19.51023 | 1560 ft | 152 kts | 2° |
| 2026-04-22 06:55 | 60.20886 | 19.51158 | 1663 ft | 151 kts | 2° |
| 2026-04-22 06:55 | 60.21918 | 19.51286 | 1766 ft | 150 kts | 2° |
| 2026-04-22 06:56 | 60.22961 | 19.51410 | 1875 ft | 150 kts | 2° |
| 2026-04-22 06:56 | 60.24000 | 19.51523 | 1980 ft | 150 kts | 2° |
| 2026-04-22 06:56 | 60.25023 | 19.52021 | 2030 ft | 158 kts | 23° |
| 2026-04-22 06:56 | 60.25988 | 19.53139 | 2020 ft | 161 kts | 26° |
| 2026-04-22 06:57 | 60.26957 | 19.54286 | 2026 ft | 161 kts | 26° |
| 2026-04-22 06:57 | 60.27922 | 19.55430 | 2026 ft | 161 kts | 26° |
| 2026-04-22 06:57 | 60.28889 | 19.56579 | 2025 ft | 161 kts | 26° |
| 2026-04-22 06:57 | 60.29855 | 19.57727 | 2025 ft | 161 kts | 26° |
| 2026-04-22 06:58 | 60.30820 | 19.58874 | 2021 ft | 161 kts | 26° |
| 2026-04-22 06:58 | 60.31790 | 19.60024 | 2018 ft | 162 kts | 26° |
| 2026-04-22 06:58 | 60.32745 | 19.61161 | 2017 ft | 161 kts | 26° |
| 2026-04-22 06:58 | 60.33713 | 19.62309 | 2014 ft | 162 kts | 26° |
| 2026-04-22 06:59 | 60.34678 | 19.63461 | 2014 ft | 161 kts | 26° |
| 2026-04-22 06:59 | 60.35641 | 19.64611 | 2014 ft | 161 kts | 26° |
| 2026-04-22 06:59 | 60.36604 | 19.65763 | 2011 ft | 161 kts | 26° |
| 2026-04-22 06:59 | 60.37565 | 19.66926 | 2011 ft | 161 kts | 26° |
| 2026-04-22 07:00 | 60.38530 | 19.68092 | 2011 ft | 162 kts | 26° |
| 2026-04-22 07:00 | 60.39498 | 19.69263 | 2005 ft | 162 kts | 26° |
| 2026-04-22 07:00 | 60.40471 | 19.70434 | 2005 ft | 163 kts | 26° |
| 2026-04-22 07:00 | 60.41450 | 19.71606 | 2005 ft | 163 kts | 26° |
| 2026-04-22 07:01 | 60.42268 | 19.73216 | 2024 ft | 175 kts | 58° |
| 2026-04-22 07:01 | 60.42560 | 19.75670 | 2024 ft | 182 kts | 72° |
| 2026-04-22 07:01 | 60.42768 | 19.78219 | 2005 ft | 183 kts | 73° |
| 2026-04-22 07:01 | 60.42971 | 19.80727 | 2007 ft | 182 kts | 73° |
| 2026-04-22 07:02 | 60.43147 | 19.83274 | 2009 ft | 184 kts | 79° |
| 2026-04-22 07:02 | 60.43201 | 19.85874 | 2009 ft | 185 kts | 81° |
| 2026-04-22 07:02 | 60.43239 | 19.88487 | 2015 ft | 186 kts | 81° |
| 2026-04-22 07:02 | 60.43277 | 19.91108 | 2018 ft | 186 kts | 81° |
| 2026-04-22 07:03 | 60.43312 | 19.93724 | 2005 ft | 186 kts | 81° |
| 2026-04-22 07:03 | 60.43344 | 19.96343 | 2003 ft | 186 kts | 82° |
| 2026-04-22 07:03 | 60.43383 | 19.98970 | 1999 ft | 187 kts | 81° |
| 2026-04-22 07:03 | 60.43420 | 20.01591 | 1999 ft | 185 kts | 82° |
| 2026-04-22 07:04 | 60.43461 | 20.04196 | 2000 ft | 185 kts | 81° |
| 2026-04-22 07:04 | 60.43397 | 20.06813 | 2004 ft | 191 kts | 97° |
| 2026-04-22 07:04 | 60.43113 | 20.09436 | 1994 ft | 191 kts | 96° |
| 2026-04-22 07:04 | 60.42826 | 20.12079 | 1991 ft | 193 kts | 96° |
| 2026-04-22 07:05 | 60.42540 | 20.14700 | 1987 ft | 193 kts | 96° |
| 2026-04-22 07:05 | 60.42249 | 20.17352 | 1989 ft | 193 kts | 96° |
| 2026-04-22 07:05 | 60.41955 | 20.20004 | 1991 ft | 193 kts | 96° |
| 2026-04-22 07:05 | 60.41662 | 20.22645 | 1986 ft | 192 kts | 96° |
| 2026-04-22 07:06 | 60.41432 | 20.25290 | 1980 ft | 191 kts | 92° |
| 2026-04-22 07:06 | 60.41227 | 20.27956 | 1984 ft | 191 kts | 92° |
| 2026-04-22 07:06 | 60.41024 | 20.30624 | 1992 ft | 192 kts | 92° |
| 2026-04-22 07:06 | 60.40817 | 20.33305 | 1990 ft | 192 kts | 92° |
| 2026-04-22 07:07 | 60.40611 | 20.35966 | 1983 ft | 191 kts | 92° |
| 2026-04-22 07:07 | 60.40405 | 20.38631 | 1997 ft | 191 kts | 92° |
| 2026-04-22 07:07 | 60.40195 | 20.41261 | 2069 ft | 189 kts | 92° |
| 2026-04-22 07:07 | 60.39983 | 20.43896 | 2069 ft | 190 kts | 92° |
| 2026-04-22 07:08 | 60.39773 | 20.46506 | 2066 ft | 191 kts | 92° |
| 2026-04-22 07:08 | 60.39560 | 20.49164 | 2068 ft | 191 kts | 92° |
| 2026-04-22 07:08 | 60.39355 | 20.51818 | 2065 ft | 191 kts | 92° |
| 2026-04-22 07:08 | 60.39375 | 20.54413 | 2065 ft | 182 kts | 72° |
| 2026-04-22 07:09 | 60.39637 | 20.56908 | 2074 ft | 181 kts | 71° |
| 2026-04-22 07:09 | 60.39908 | 20.59389 | 2080 ft | 181 kts | 71° |
| 2026-04-22 07:09 | 60.40187 | 20.61887 | 2074 ft | 184 kts | 71° |
| 2026-04-22 07:09 | 60.40480 | 20.64416 | 2066 ft | 184 kts | 70° |
| 2026-04-22 07:10 | 60.40770 | 20.66943 | 2067 ft | 184 kts | 70° |
| 2026-04-22 07:10 | 60.41058 | 20.69468 | 2065 ft | 184 kts | 71° |
| 2026-04-22 07:10 | 60.41346 | 20.71954 | 2061 ft | 183 kts | 70° |
| 2026-04-22 07:10 | 60.41666 | 20.74439 | 2058 ft | 181 kts | 66° |
| 2026-04-22 07:11 | 60.42074 | 20.76854 | 2056 ft | 182 kts | 64° |
| 2026-04-22 07:11 | 60.42486 | 20.79272 | 2053 ft | 181 kts | 64° |
| 2026-04-22 07:11 | 60.42893 | 20.81686 | 2052 ft | 181 kts | 65° |
| 2026-04-22 07:11 | 60.43301 | 20.84098 | 2050 ft | 181 kts | 65° |
| 2026-04-22 07:12 | 60.43713 | 20.86505 | 2050 ft | 181 kts | 64° |
| 2026-04-22 07:12 | 60.44130 | 20.88918 | 1982 ft | 182 kts | 64° |
| 2026-04-22 07:12 | 60.44538 | 20.91318 | 1913 ft | 181 kts | 65° |
| 2026-04-22 07:12 | 60.44950 | 20.93758 | 1832 ft | 182 kts | 64° |
| 2026-04-22 07:13 | 60.45353 | 20.96167 | 1753 ft | 183 kts | 65° |
| 2026-04-22 07:13 | 60.45757 | 20.98608 | 1663 ft | 182 kts | 64° |
| 2026-04-22 07:13 | 60.46157 | 21.01046 | 1578 ft | 183 kts | 65° |
| 2026-04-22 07:13 | 60.46564 | 21.03484 | 1497 ft | 182 kts | 64° |
| 2026-04-22 07:14 | 60.46970 | 21.05915 | 1454 ft | 182 kts | 65° |
| 2026-04-22 07:14 | 60.47376 | 21.08342 | 1422 ft | 182 kts | 65° |
| 2026-04-22 07:14 | 60.47773 | 21.10782 | 1389 ft | 183 kts | 65° |
| 2026-04-22 07:14 | 60.48173 | 21.13222 | 1362 ft | 182 kts | 64° |
| 2026-04-22 07:15 | 60.48572 | 21.15668 | 1324 ft | 183 kts | 65° |
| 2026-04-22 07:15 | 60.48980 | 21.18114 | 1298 ft | 183 kts | 64° |
| 2026-04-22 07:15 | 60.49387 | 21.20569 | 1264 ft | 182 kts | 65° |
| 2026-04-22 07:15 | 60.49590 | 21.23101 | 1255 ft | 188 kts | 85° |
| 2026-04-22 07:16 | 60.49547 | 21.25767 | 1251 ft | 190 kts | 86° |
| 2026-04-22 07:16 | 60.49493 | 21.28450 | 1244 ft | 191 kts | 87° |
| 2026-04-22 07:16 | 60.49443 | 21.31168 | 1240 ft | 193 kts | 86° |
| 2026-04-22 07:16 | 60.49385 | 21.33887 | 1237 ft | 193 kts | 87° |
| 2026-04-22 07:17 | 60.49324 | 21.36602 | 1233 ft | 192 kts | 86° |
| 2026-04-22 07:17 | 60.49265 | 21.39287 | 1233 ft | 190 kts | 87° |
| 2026-04-22 07:17 | 60.49209 | 21.41971 | 1252 ft | 191 kts | 88° |
| 2026-04-22 07:17 | 60.49160 | 21.44658 | 1245 ft | 190 kts | 87° |
| 2026-04-22 07:18 | 60.49114 | 21.47304 | 1240 ft | 190 kts | 87° |
| 2026-04-22 07:18 | 60.49071 | 21.50005 | 1241 ft | 192 kts | 86° |
| 2026-04-22 07:18 | 60.49016 | 21.52684 | 1243 ft | 190 kts | 87° |
| 2026-04-22 07:18 | 60.48958 | 21.55367 | 1242 ft | 191 kts | 86° |
| 2026-04-22 07:19 | 60.48911 | 21.58059 | 1217 ft | 188 kts | 82° |
| 2026-04-22 07:19 | 60.49362 | 21.60396 | 1203 ft | 175 kts | 45° |
| 2026-04-22 07:19 | 60.50183 | 21.62187 | 1215 ft | 173 kts | 40° |
| 2026-04-22 07:19 | 60.51015 | 21.63935 | 1212 ft | 172 kts | 39° |
| 2026-04-22 07:20 | 60.51831 | 21.65665 | 1209 ft | 171 kts | 39° |
| 2026-04-22 07:20 | 60.52727 | 21.67262 | 1206 ft | 172 kts | 34° |
| 2026-04-22 07:20 | 60.53643 | 21.68814 | 1206 ft | 171 kts | 34° |
| 2026-04-22 07:20 | 60.54567 | 21.70339 | 1206 ft | 171 kts | 34° |
| 2026-04-22 07:21 | 60.55491 | 21.71868 | 1204 ft | 171 kts | 34° |
| 2026-04-22 07:21 | 60.56415 | 21.73385 | 1201 ft | 171 kts | 33° |
| 2026-04-22 07:21 | 60.57333 | 21.74919 | 1206 ft | 171 kts | 34° |
| 2026-04-22 07:21 | 60.58253 | 21.76452 | 1201 ft | 171 kts | 33° |
| 2026-04-22 07:22 | 60.59171 | 21.78000 | 1203 ft | 171 kts | 34° |
| 2026-04-22 07:22 | 60.60095 | 21.79528 | 1199 ft | 171 kts | 33° |
| 2026-04-22 07:22 | 60.61012 | 21.81070 | 1201 ft | 171 kts | 34° |
| 2026-04-22 07:22 | 60.61917 | 21.82598 | 1201 ft | 172 kts | 34° |
| 2026-04-22 07:23 | 60.62715 | 21.84473 | 1211 ft | 179 kts | 58° |
| 2026-04-22 07:23 | 60.63052 | 21.86908 | 1214 ft | 187 kts | 83° |
| 2026-04-22 07:23 | 60.63040 | 21.89584 | 1223 ft | 189 kts | 86° |
| 2026-04-22 07:23 | 60.63016 | 21.92267 | 1223 ft | 191 kts | 86° |
| 2026-04-22 07:24 | 60.62990 | 21.94997 | 1225 ft | 193 kts | 85° |
| 2026-04-22 07:24 | 60.62967 | 21.97730 | 1221 ft | 193 kts | 85° |
| 2026-04-22 07:24 | 60.62942 | 22.00468 | 1219 ft | 193 kts | 86° |
| 2026-04-22 07:24 | 60.62886 | 22.03188 | 1219 ft | 194 kts | 93° |
| 2026-04-22 07:25 | 60.62431 | 22.05807 | 1230 ft | 199 kts | 118° |
| 2026-04-22 07:25 | 60.61545 | 22.07934 | 1231 ft | 201 kts | 138° |
| 2026-04-22 07:25 | 60.60493 | 22.09804 | 1219 ft | 200 kts | 139° |
| 2026-04-22 07:25 | 60.59447 | 22.11709 | 1162 ft | 203 kts | 138° |
| 2026-04-22 07:26 | 60.58394 | 22.13626 | 1103 ft | 204 kts | 139° |
| 2026-04-22 07:26 | 60.57329 | 22.15549 | 1059 ft | 205 kts | 137° |
| 2026-04-22 07:26 | 60.56262 | 22.17482 | 1007 ft | 205 kts | 138° |
| 2026-04-22 07:26 | 60.55191 | 22.19402 | 933 ft | 204 kts | 139° |
| 2026-04-22 07:27 | 60.54138 | 22.21308 | 889 ft | 202 kts | 140° |
| 2026-04-22 07:27 | 60.53140 | 22.23265 | 855 ft | 190 kts | 127° |
| 2026-04-22 07:27 | 60.52808 | 22.24842 | 791 ft | 180 kts | 96° |
| 2026-04-22 07:27 | 60.52770 | 22.27347 | 673 ft | 171 kts | 84° |
| 2026-04-22 07:28 | 60.52323 | 22.31192 | 584 ft | 122 kts | 149° |
| 2026-04-22 07:28 | 60.51601 | 22.30612 | 358 ft | 88 kts | 269° |
| 2026-04-22 07:28 | 60.51570 | 22.29816 | 313 ft | 81 kts | 276° |
| 2026-04-22 07:29 | 60.51517 | 22.28687 | 210 ft | 78 kts | 277° |
| 2026-04-22 07:29 | 60.51473 | 22.27621 | 160 ft | 60 kts | 265° |
| 2026-04-22 07:29 | 60.51456 | 22.27301 | 163 ft | 17 kts | 264° |
| 2026-04-22 07:29 | 60.51415 | 22.27048 | 166 ft | 13 kts | 202° |
| 2026-04-22 07:30 | 60.51331 | 22.27096 | 168 ft | 11 kts | 114° |
| 2026-04-22 07:30 | 60.51332 | 22.27309 | 166 ft | 20 kts | 83° |
| 2026-04-22 07:30 | 60.51347 | 22.27631 | 162 ft | 26 kts | 83° |
| 2026-04-22 07:30 | 60.51366 | 22.28023 | 154 ft | 31 kts | 84° |
| 2026-04-22 07:31 | 60.51381 | 22.28446 | 146 ft | 18 kts | 85° |
| 2026-04-22 07:31 | 60.51350 | 22.28570 | 146 ft | 10 kts | 167° |
| 2026-04-22 07:31 | 60.51316 | 22.28679 | 150 ft | 10 kts | 91° |
| 2026-04-22 07:31 | 60.51325 | 22.28771 | 151 ft | 0 kts | 75° |